Time;durP1;ratioP1;P1;durP2;ratioP2;P2;SDS_P1;SDS_P2;PMS_P1;PMS_P2;Temp;Humidity;BMP_temperature;BMP_pressure;BME280_temperature;BME280_humidity;BME280_pressure;Samples;Min_cycle;Max_cycle;Signal;HPM_P1;HPM_P2
2022/10/14 00:00:15;;;;;;;6.80;4.85;;;15.60;72.00;;;;;;10364432;28;20026;-57
2022/10/14 00:05:16;;;;;;;6.57;4.60;;;15.60;72.00;;;;;;10364365;28;20082;-60
2022/10/14 00:10:17;;;;;;;6.80;5.45;;;15.60;72.00;;;;;;10373893;28;20608;-58
2022/10/14 00:15:18;;;;;;;5.55;4.88;;;15.60;72.00;;;;;;10365503;28;20026;-57
2022/10/14 00:20:18;;;;;;;7.13;4.60;;;15.60;72.00;;;;;;10363704;28;20038;-57
2022/10/14 00:25:19;;;;;;;7.15;4.32;;;15.60;71.90;;;;;;10376663;28;20366;-59
2022/10/14 00:30:20;;;;;;;6.82;4.38;;;15.60;71.90;;;;;;10370155;28;20084;-59
2022/10/14 00:35:20;;;;;;;5.85;4.32;;;15.60;71.80;;;;;;10387737;28;20034;-58
2022/10/14 00:40:21;;;;;;;6.32;4.15;;;15.60;71.80;;;;;;10363024;28;20533;-57
2022/10/14 00:45:24;;;;;;;6.90;5.30;;;15.60;71.90;;;;;;10363198;28;20069;-59
2022/10/14 00:50:24;;;;;;;6.65;5.25;;;15.60;71.80;;;;;;10378149;28;20428;-59
2022/10/14 00:55:27;;;;;;;6.05;4.55;;;15.60;71.80;;;;;;10364039;28;20076;-57
2022/10/14 01:00:27;;;;;;;6.40;3.83;;;15.60;71.80;;;;;;10362642;28;20149;-57
2022/10/14 01:05:34;;;;;;;6.40;4.45;;;15.60;71.80;;;;;;10362584;28;20026;-57
2022/10/14 01:10:52;;;;;;;6.22;4.18;;;15.60;71.80;;;;;;10371561;28;20026;-58
2022/10/14 01:16:19;;;;;;;6.78;4.72;;;15.60;71.80;;;;;;10363758;28;20026;-58
2022/10/14 01:21:36;;;;;;;5.40;3.75;;;15.60;71.90;;;;;;10363440;28;20724;-58
2022/10/14 01:27:21;;;;;;;5.63;3.75;;;15.60;72.00;;;;;;10375334;28;20050;-58
2022/10/14 01:32:47;;;;;;;6.13;4.85;;;15.60;72.00;;;;;;10361819;28;20569;-59
2022/10/14 01:37:57;;;;;;;6.35;5.05;;;15.60;71.90;;;;;;10366654;28;20021;-58
2022/10/14 01:42:59;;;;;;;6.15;3.92;;;15.60;71.90;;;;;;10383331;28;20045;-59
2022/10/14 01:48:02;;;;;;;5.68;4.38;;;15.60;71.80;;;;;;10370113;28;20010;-58
2022/10/14 01:53:14;;;;;;;5.63;4.10;;;15.60;71.80;;;;;;10369697;28;20567;-58
2022/10/14 01:58:16;;;;;;;6.43;4.40;;;15.60;71.70;;;;;;10370234;28;20022;-58
2022/10/14 02:03:17;;;;;;;5.90;3.90;;;15.60;71.70;;;;;;10370827;28;20042;-59
2022/10/14 02:09:01;;;;;;;5.25;4.20;;;15.60;71.70;;;;;;10376155;28;20093;-58
2022/10/14 02:14:49;;;;;;;6.28;3.90;;;15.60;71.70;;;;;;10360800;28;20108;-58
2022/10/14 02:20:03;;;;;;;4.70;3.50;;;15.60;71.70;;;;;;10359394;28;20046;-57
2022/10/14 02:25:16;;;;;;;6.03;4.50;;;15.60;71.70;;;;;;10356441;28;20026;-58
2022/10/14 02:30:18;;;;;;;5.93;3.95;;;15.60;71.70;;;;;;10368428;28;20044;-58
2022/10/14 02:35:22;;;;;;;6.43;3.90;;;15.60;71.70;;;;;;10368453;28;20053;-59
2022/10/14 02:40:37;;;;;;;5.03;3.88;;;15.60;71.60;;;;;;10367750;28;20038;-57
2022/10/14 02:45:41;;;;;;;4.65;3.15;;;15.50;71.60;;;;;;10367806;28;20022;-59
2022/10/14 02:50:42;;;;;;;4.15;3.15;;;15.60;71.60;;;;;;10363626;28;20021;-58
2022/10/14 02:55:42;;;;;;;6.13;4.15;;;15.50;71.60;;;;;;10369462;28;20115;-57
2022/10/14 03:00:43;;;;;;;5.20;3.75;;;15.50;71.50;;;;;;10368563;28;20039;-57
2022/10/14 03:05:44;;;;;;;5.40;4.20;;;15.60;71.60;;;;;;10366736;28;20025;-58
2022/10/14 03:10:47;;;;;;;5.50;4.03;;;15.50;71.60;;;;;;10376336;28;20081;-58
2022/10/14 03:15:52;;;;;;;5.88;3.65;;;15.50;71.50;;;;;;10367902;28;20021;-59
2022/10/14 03:20:53;;;;;;;4.13;3.15;;;15.60;71.60;;;;;;10367533;28;20034;-58
2022/10/14 03:25:54;;;;;;;5.50;3.83;;;15.50;71.50;;;;;;10380350;28;20018;-58
2022/10/14 03:30:54;;;;;;;4.40;3.22;;;15.50;71.60;;;;;;10367678;28;20376;-58
2022/10/14 03:35:55;;;;;;;4.82;3.33;;;15.50;71.60;;;;;;10365020;28;20104;-58
2022/10/14 03:40:56;;;;;;;4.82;3.33;;;15.50;71.70;;;;;;10366945;28;20096;-59
2022/10/14 03:45:57;;;;;;;5.00;3.72;;;15.50;71.80;;;;;;10365642;28;20045;-58
2022/10/14 03:50:58;;;;;;;5.22;3.67;;;15.50;71.70;;;;;;10365286;28;20105;-58
2022/10/14 03:55:58;;;;;;;5.03;3.88;;;15.50;71.60;;;;;;10381378;28;20018;-59
2022/10/14 04:00:59;;;;;;;5.13;3.83;;;15.50;71.60;;;;;;10364408;28;20104;-58
2022/10/14 04:06:00;;;;;;;6.95;4.70;;;15.50;71.60;;;;;;10378565;28;20097;-58
2022/10/14 04:11:00;;;;;;;5.18;3.55;;;15.50;71.60;;;;;;10372765;28;20064;-59
2022/10/14 04:16:07;;;;;;;5.35;3.75;;;15.50;71.50;;;;;;10381949;28;20096;-58
2022/10/14 04:21:11;;;;;;;5.63;4.07;;;15.50;71.60;;;;;;10363334;28;20052;-58
2022/10/14 04:26:11;;;;;;;5.57;4.68;;;15.50;71.70;;;;;;10364377;28;20021;-59
2022/10/14 04:31:12;;;;;;;6.50;4.22;;;15.80;70.80;;;;;;10376575;28;20585;-57
2022/10/14 04:36:13;;;;;;;6.72;4.38;;;16.10;69.90;;;;;;10350977;28;20037;-57
2022/10/14 04:41:14;;;;;;;5.32;4.00;;;16.30;69.00;;;;;;10364839;28;20052;-58
2022/10/14 04:46:14;;;;;;;5.53;3.78;;;16.50;68.40;;;;;;10379671;28;20890;-58
2022/10/14 04:51:15;;;;;;;6.32;3.60;;;16.60;68.00;;;;;;10375189;28;20026;-58
2022/10/14 04:56:16;;;;;;;9.25;6.57;;;16.70;67.80;;;;;;10362765;28;20512;-58
2022/10/14 05:01:17;;;;;;;8.32;7.15;;;16.80;70.50;;;;;;10363694;28;20030;-58
2022/10/14 05:06:18;;;;;;;12.45;8.88;;;17.00;68.50;;;;;;10364454;28;20014;-57
2022/10/14 05:11:18;;;;;;;11.18;8.38;;;17.10;68.40;;;;;;10371268;28;20034;-58
2022/10/14 05:16:19;;;;;;;12.00;9.48;;;17.10;69.00;;;;;;10363470;28;20030;-57
2022/10/14 05:21:20;;;;;;;10.90;9.07;;;17.20;69.30;;;;;;10378915;28;20073;-59
2022/10/14 05:26:20;;;;;;;12.40;9.05;;;17.20;69.10;;;;;;10378876;28;20022;-57
2022/10/14 05:31:21;;;;;;;15.88;9.75;;;17.30;69.50;;;;;;10363331;28;20705;-57
2022/10/14 05:36:22;;;;;;;18.25;9.98;;;17.30;69.10;;;;;;10362177;28;20033;-57
2022/10/14 05:41:23;;;;;;;18.33;10.85;;;17.40;68.60;;;;;;10363760;28;20117;-61
2022/10/14 05:46:24;;;;;;;31.63;10.55;;;17.40;69.10;;;;;;10363507;28;20028;-58
2022/10/14 05:51:25;;;;;;;21.13;11.43;;;17.50;69.20;;;;;;10378824;28;20105;-58
2022/10/14 05:56:25;;;;;;;20.85;10.60;;;17.70;68.50;;;;;;10364238;28;20095;-55
2022/10/14 06:01:26;;;;;;;20.50;10.15;;;17.70;68.90;;;;;;10361401;28;20721;-56
2022/10/14 06:06:27;;;;;;;19.80;10.18;;;17.80;68.40;;;;;;10358557;28;20021;-56
2022/10/14 06:11:27;;;;;;;29.80;10.52;;;17.80;68.80;;;;;;10356605;28;20053;-56
2022/10/14 06:16:28;;;;;;;21.48;9.27;;;17.80;69.30;;;;;;10375012;28;20117;-56
2022/10/14 06:21:29;;;;;;;24.67;9.68;;;17.80;68.80;;;;;;10359942;28;20347;-56
2022/10/14 06:26:29;;;;;;;30.25;9.50;;;17.80;68.40;;;;;;10366806;28;20018;-55
2022/10/14 06:31:30;;;;;;;23.70;9.18;;;17.90;68.10;;;;;;10364559;28;20108;-55
2022/10/14 06:36:31;;;;;;;17.73;7.68;;;17.90;67.90;;;;;;10368459;28;20093;-56
2022/10/14 06:41:31;;;;;;;20.40;7.95;;;17.80;68.50;;;;;;10367441;28;20049;-56
2022/10/14 06:46:32;;;;;;;20.50;8.90;;;17.70;70.50;;;;;;10369301;28;20057;-56
2022/10/14 06:51:33;;;;;;;16.67;7.60;;;17.60;71.10;;;;;;10367260;28;20060;-54
2022/10/14 06:56:34;;;;;;;14.52;7.03;;;17.60;71.50;;;;;;10366182;28;20032;-56
2022/10/14 07:01:35;;;;;;;22.48;8.65;;;17.50;72.00;;;;;;10349562;28;20026;-55
2022/10/14 07:06:36;;;;;;;12.27;6.25;;;17.50;72.40;;;;;;10395006;28;20131;-54
2022/10/14 07:11:37;;;;;;;18.13;6.72;;;17.60;72.40;;;;;;10362186;28;20034;-55
2022/10/14 07:16:38;;;;;;;14.20;5.47;;;17.50;72.80;;;;;;10363674;28;20116;-56
2022/10/14 07:21:38;;;;;;;11.93;5.90;;;17.50;72.90;;;;;;10363040;28;20240;-55
2022/10/14 07:26:39;;;;;;;11.70;6.18;;;17.50;72.80;;;;;;10362827;28;20105;-55
2022/10/14 07:31:40;;;;;;;11.65;5.90;;;17.50;72.70;;;;;;10362328;28;20022;-56
2022/10/14 07:36:41;;;;;;;15.85;5.03;;;17.50;72.80;;;;;;10360141;28;20057;-54
2022/10/14 07:41:42;;;;;;;14.52;6.13;;;17.40;72.80;;;;;;10365273;28;20136;-56
2022/10/14 07:46:44;;;;;;;9.90;4.32;;;17.50;72.90;;;;;;10357813;28;20099;-55
2022/10/14 07:51:46;;;;;;;12.00;5.00;;;17.40;72.80;;;;;;10380975;28;20072;-56
2022/10/14 07:56:50;;;;;;;7.72;4.35;;;17.40;72.80;;;;;;10362021;28;20029;-55
2022/10/14 08:01:52;;;;;;;12.60;5.93;;;17.40;74.20;;;;;;10359549;28;20045;-56
2022/10/14 08:06:53;;;;;;;11.95;5.15;;;17.50;75.50;;;;;;10361017;28;20099;-55
2022/10/14 08:11:53;;;;;;;8.65;4.35;;;17.40;75.90;;;;;;10375858;28;20124;-56
2022/10/14 08:16:54;;;;;;;9.60;3.90;;;17.40;75.50;;;;;;10364791;28;20061;-55
2022/10/14 08:21:55;;;;;;;14.13;3.95;;;17.40;75.20;;;;;;10364297;28;20052;-55
2022/10/14 08:26:58;;;;;;;11.70;4.10;;;17.40;74.40;;;;;;10366011;28;20030;-56
2022/10/14 08:31:59;;;;;;;8.80;4.28;;;17.40;74.20;;;;;;10365414;28;20024;-57
2022/10/14 08:37:01;;;;;;;11.07;4.05;;;17.30;74.10;;;;;;10368994;28;20056;-56
2022/10/14 08:42:48;;;;;;;9.50;3.97;;;17.40;74.20;;;;;;10364080;28;20128;-56
2022/10/14 08:47:55;;;;;;;14.40;4.28;;;17.30;74.00;;;;;;10371529;28;20092;-55
2022/10/14 08:53:13;;;;;;;11.93;3.78;;;17.30;73.80;;;;;;10363552;28;20022;-56
2022/10/14 08:58:40;;;;;;;8.73;4.07;;;17.40;73.50;;;;;;10364552;28;20072;-56
2022/10/14 09:03:41;;;;;;;9.75;3.70;;;17.40;73.40;;;;;;10364310;28;20754;-56
2022/10/14 09:08:46;;;;;;;8.65;3.60;;;17.30;73.50;;;;;;10385973;28;20018;-55
2022/10/14 09:13:56;;;;;;;10.02;3.47;;;17.30;73.30;;;;;;10364794;28;20676;-55
2022/10/14 09:18:59;;;;;;;;;;;17.30;73.40;;;;;;10364456;28;20108;-56
2022/10/14 09:24:25;;;;;;;7.70;3.42;;;17.20;73.40;;;;;;10364460;28;20514;-56
2022/10/14 09:29:35;;;;;;;7.93;3.15;;;17.20;73.60;;;;;;10363772;28;20018;-57
2022/10/14 09:34:44;;;;;;;6.90;2.70;;;17.20;73.30;;;;;;10364733;28;20348;-56
2022/10/14 09:39:46;;;;;;;6.47;3.10;;;17.30;73.10;;;;;;10374862;28;20054;-55
2022/10/14 09:45:08;;;;;;;9.05;3.92;;;17.20;73.20;;;;;;10362676;28;20049;-55
2022/10/14 09:50:12;;;;;;;7.60;3.17;;;17.20;73.00;;;;;;10378931;28;20026;-56
2022/10/14 09:55:20;;;;;;;5.57;3.00;;;17.30;72.80;;;;;;10362048;28;20092;-56
2022/10/14 10:00:30;;;;;;;10.82;3.08;;;17.40;72.60;;;;;;10369162;28;20072;-55
2022/10/14 10:05:34;;;;;;;11.30;4.95;;;17.30;72.70;;;;;;10339123;28;20014;-55
2022/10/14 10:10:36;;;;;;;5.57;3.10;;;17.30;73.30;;;;;;10384705;28;20486;-55
2022/10/14 10:15:37;;;;;;;9.38;4.03;;;17.40;74.20;;;;;;10370866;28;20028;-54
2022/10/14 10:20:38;;;;;;;7.22;3.22;;;17.40;74.00;;;;;;10366683;28;20172;-56
2022/10/14 10:25:38;;;;;;;7.22;3.03;;;17.40;74.00;;;;;;10370346;28;20037;-53
2022/10/14 10:30:58;;;;;;;8.45;3.53;;;17.30;73.70;;;;;;10368951;28;20026;-55
2022/10/14 10:36:28;;;;;;;7.28;3.33;;;17.30;74.10;;;;;;10383417;28;20018;-56
2022/10/14 10:42:08;;;;;;;15.88;3.45;;;17.40;73.80;;;;;;10368544;28;20533;-55
2022/10/14 10:47:33;;;;;;;10.85;3.95;;;17.60;72.80;;;;;;10367861;28;20452;-56
2022/10/14 10:52:55;;;;;;;11.20;3.40;;;17.80;72.20;;;;;;10369256;28;20022;-56
2022/10/14 10:58:29;;;;;;;6.55;3.17;;;18.00;71.40;;;;;;10384856;28;20029;-55
2022/10/14 11:04:03;;;;;;;11.88;2.70;;;18.10;71.20;;;;;;10365046;28;20605;-55
2022/10/14 11:15:06;;;;;;;9.27;2.72;;;18.20;71.50;;;;;;10375369;28;20492;-55
2022/10/14 11:20:35;;;;;;;11.50;3.17;;;18.30;71.40;;;;;;10355381;28;20030;-54
2022/10/14 11:26:10;;;;;;;14.93;3.85;;;18.40;71.30;;;;;;10371485;28;20014;-57
2022/10/14 11:31:30;;;;;;;18.60;3.30;;;18.30;71.50;;;;;;10356480;28;20034;-57
2022/10/14 11:36:53;;;;;;;16.27;3.83;;;18.30;71.50;;;;;;10367512;28;20026;-57
2022/10/14 11:42:05;;;;;;;13.43;3.72;;;18.30;71.90;;;;;;10366283;28;20038;-56
2022/10/14 11:47:20;;;;;;;19.20;3.47;;;18.40;71.70;;;;;;10365544;28;20021;-58
2022/10/14 11:52:33;;;;;;;15.80;4.03;;;18.50;71.80;;;;;;10366308;28;20037;-57
2022/10/14 11:57:43;;;;;;;15.73;3.33;;;18.50;71.60;;;;;;10362996;28;20061;-56
2022/10/14 12:03:20;;;;;;;22.83;3.85;;;18.40;71.60;;;;;;10371416;28;20120;-56
2022/10/14 12:08:42;;;;;;;19.85;2.92;;;18.30;71.80;;;;;;10375719;28;20519;-56
2022/10/14 12:13:50;;;;;;;11.77;3.40;;;18.20;72.10;;;;;;10371031;28;20048;-57
2022/10/14 12:18:56;;;;;;;17.20;3.85;;;18.10;72.30;;;;;;10364362;28;20104;-59
2022/10/14 12:24:07;;;;;;;16.40;3.53;;;18.00;73.80;;;;;;10364331;28;20719;-57
2022/10/14 12:29:14;;;;;;;16.13;3.42;;;18.10;73.70;;;;;;10363675;28;20026;-57
2022/10/14 12:34:33;;;;;;;16.50;3.78;;;18.10;74.60;;;;;;10364152;28;20040;-58
2022/10/14 12:39:41;;;;;;;22.92;5.03;;;17.90;74.60;;;;;;10365423;28;20045;-58
2022/10/14 12:44:55;;;;;;;62.05;9.95;;;17.90;75.00;;;;;;10358246;28;20109;-57
2022/10/14 12:50:01;;;;;;;50.42;10.27;;;17.80;75.80;;;;;;10369563;28;20026;-56
2022/10/14 12:55:28;;;;;;;39.03;8.13;;;17.60;76.30;;;;;;10362044;28;20022;-56
2022/10/14 13:00:40;;;;;;;48.40;8.82;;;17.60;76.90;;;;;;10361876;28;20413;-57
2022/10/14 13:05:43;;;;;;;33.60;6.78;;;17.50;77.10;;;;;;10353447;28;20045;-57
2022/10/14 13:10:53;;;;;;;32.63;7.05;;;17.50;77.40;;;;;;10362514;28;20030;-57
2022/10/14 13:15:54;;;;;;;27.95;7.72;;;17.50;77.50;;;;;;10363648;28;20029;-56
2022/10/14 13:20:54;;;;;;;27.52;7.03;;;17.50;77.60;;;;;;10374571;28;20326;-56
2022/10/14 13:26:09;;;;;;;19.35;4.78;;;17.40;77.60;;;;;;10363096;28;20109;-56
2022/10/14 13:31:46;;;;;;;26.92;6.53;;;17.40;77.60;;;;;;10350190;28;20045;-57
2022/10/14 13:37:17;;;;;;;31.08;6.20;;;17.40;77.70;;;;;;10370621;28;20022;-55
2022/10/14 13:42:32;;;;;;;57.10;9.27;;;17.40;77.90;;;;;;10371077;28;20053;-56
2022/10/14 13:47:33;;;;;;;29.98;6.85;;;17.40;78.00;;;;;;10371681;28;20164;-56
2022/10/14 13:52:34;;;;;;;41.42;8.25;;;17.40;78.00;;;;;;10383715;28;20080;-57
2022/10/14 13:57:35;;;;;;;44.42;10.10;;;17.30;78.20;;;;;;10370423;28;20040;-57
2022/10/14 14:02:38;;;;;;;69.95;11.10;;;17.30;78.10;;;;;;10371665;28;20083;-55
2022/10/14 14:07:38;;;;;;;56.50;10.75;;;17.30;78.00;;;;;;10370531;28;20045;-56
2022/10/14 14:12:43;;;;;;;36.85;8.13;;;17.30;78.20;;;;;;10376652;28;20476;-56
2022/10/14 14:17:43;;;;;;;38.60;6.25;;;17.30;78.10;;;;;;10372530;28;20025;-55
2022/10/14 14:22:44;;;;;;;37.47;7.80;;;17.30;78.40;;;;;;10382411;28;20065;-57
2022/10/14 14:27:59;;;;;;;40.10;6.47;;;17.50;77.90;;;;;;10371857;28;20056;-57
2022/10/14 14:33:13;;;;;;;28.50;6.45;;;17.50;77.90;;;;;;10370213;28;20057;-55
2022/10/14 14:38:51;;;;;;;32.05;6.00;;;17.50;77.90;;;;;;10368705;28;20433;-56
2022/10/14 14:44:06;;;;;;;29.45;5.93;;;17.50;77.90;;;;;;10371780;28;20041;-56
2022/10/14 14:49:10;;;;;;;30.80;6.55;;;17.50;78.00;;;;;;10369432;28;20339;-56
2022/10/14 14:54:18;;;;;;;36.25;6.82;;;17.50;78.20;;;;;;10367683;28;20026;-56
2022/10/14 14:59:37;;;;;;;30.40;8.52;;;17.40;77.90;;;;;;10368267;28;20096;-55
2022/10/14 15:04:37;;;;;;;26.08;5.57;;;17.40;78.30;;;;;;10368490;28;20469;-56
2022/10/14 15:09:47;;;;;;;28.13;6.05;;;17.40;78.60;;;;;;10380510;28;20076;-56
2022/10/14 15:14:58;;;;;;;26.65;7.32;;;17.50;78.10;;;;;;10367540;28;20036;-56
2022/10/14 15:20:19;;;;;;;22.10;6.80;;;17.60;77.80;;;;;;10364315;28;20363;-56
2022/10/14 15:25:19;;;;;;;23.55;5.72;;;17.80;80.10;;;;;;10347185;28;20670;-57
2022/10/14 15:30:25;;;;;;;22.25;5.40;;;17.70;79.90;;;;;;10383484;28;20034;-57
2022/10/14 15:35:27;;;;;;;34.88;7.43;;;17.80;80.70;;;;;;10382422;28;20026;-56
2022/10/14 15:40:31;;;;;;;21.23;7.35;;;17.90;81.40;;;;;;10382823;28;20049;-56
2022/10/14 15:45:31;;;;;;;20.98;6.53;;;18.10;79.40;;;;;;10368715;28;20080;-58
2022/10/14 15:50:35;;;;;;;19.33;5.97;;;18.10;79.90;;;;;;10367372;28;20149;-58
2022/10/14 15:55:36;;;;;;;18.88;7.30;;;18.10;81.70;;;;;;10363484;28;20022;-56
2022/10/14 16:00:37;;;;;;;20.48;7.60;;;18.00;81.90;;;;;;10369356;28;20070;-57
2022/10/14 16:05:38;;;;;;;16.55;7.20;;;17.90;81.90;;;;;;10355999;28;20097;-56
2022/10/14 16:10:43;;;;;;;17.52;8.25;;;18.00;81.80;;;;;;10364690;28;20033;-55
2022/10/14 16:15:59;;;;;;;12.35;5.70;;;18.10;80.80;;;;;;10365414;28;20659;-54
2022/10/14 16:21:00;;;;;;;17.55;6.25;;;18.20;80.60;;;;;;10363722;28;20038;-56
2022/10/14 16:26:01;;;;;;;18.02;6.43;;;18.50;79.60;;;;;;10365847;28;20049;-55
2022/10/14 16:31:01;;;;;;;21.42;6.32;;;18.60;78.90;;;;;;10364556;28;20053;-55
2022/10/14 16:36:05;;;;;;;12.25;5.40;;;18.70;78.60;;;;;;10363703;28;20412;-57
2022/10/14 16:41:08;;;;;;;17.35;5.72;;;18.50;78.90;;;;;;10363687;28;20042;-57
2022/10/14 16:46:10;;;;;;;15.40;5.28;;;18.30;79.00;;;;;;10363992;28;20022;-59
2022/10/14 16:51:11;;;;;;;15.77;5.47;;;18.30;79.20;;;;;;10362234;28;20208;-55
2022/10/14 17:01:39;;;;;;;10.20;4.88;;;18.10;79.30;;;;;;10364275;28;20045;-55
2022/10/14 17:06:40;;;;;;;14.35;5.38;;;17.90;79.60;;;;;;10366066;28;20497;-56
2022/10/14 17:11:41;;;;;;;12.48;5.65;;;18.00;79.60;;;;;;10369237;28;20393;-61
2022/10/14 17:16:42;;;;;;;11.52;4.35;;;17.90;79.50;;;;;;10365305;28;20029;-57
2022/10/14 17:21:43;;;;;;;16.95;5.07;;;17.90;79.30;;;;;;10370557;28;20030;-55
2022/10/14 17:26:44;;;;;;;12.18;5.03;;;17.90;79.10;;;;;;10363520;28;20018;-56
2022/10/14 17:31:45;;;;;;;16.15;5.00;;;17.90;79.00;;;;;;10363260;28;20641;-57
2022/10/14 17:36:46;;;;;;;13.85;5.53;;;17.80;79.00;;;;;;10362627;28;20048;-56
2022/10/14 17:41:46;;;;;;;10.82;5.85;;;17.80;79.10;;;;;;10370260;28;20161;-56
2022/10/14 17:46:47;;;;;;;18.70;8.48;;;17.70;79.20;;;;;;10371581;28;20061;-56
2022/10/14 17:51:48;;;;;;;6.07;3.22;;;17.70;79.20;;;;;;10362232;28;20073;-57
2022/10/14 17:56:48;;;;;;;10.30;4.32;;;17.60;79.30;;;;;;10373571;28;20049;-56
2022/10/14 18:01:49;;;;;;;7.32;4.18;;;17.60;79.20;;;;;;10362725;28;20488;-56
2022/10/14 18:06:51;;;;;;;8.68;3.85;;;17.60;79.20;;;;;;10363346;28;20026;-57
2022/10/14 18:11:52;;;;;;;8.13;4.20;;;17.50;79.20;;;;;;10371991;28;20777;-56
2022/10/14 18:16:52;;;;;;;10.55;4.47;;;17.50;79.10;;;;;;10361734;28;20049;-56
2022/10/14 18:21:53;;;;;;;11.35;4.25;;;17.40;79.00;;;;;;10367894;28;20152;-58
2022/10/14 18:26:54;;;;;;;10.30;4.32;;;17.40;78.90;;;;;;10369429;28;20560;-55
2022/10/14 18:31:54;;;;;;;9.55;4.25;;;17.50;79.00;;;;;;10368734;28;20037;-56
2022/10/14 18:36:55;;;;;;;7.93;3.28;;;17.50;78.80;;;;;;10368813;28;20105;-56
2022/10/14 18:41:56;;;;;;;8.60;4.15;;;17.40;78.90;;;;;;10368131;28;20562;-57
2022/10/14 18:46:56;;;;;;;10.18;4.07;;;17.40;79.00;;;;;;10367598;28;20451;-57
2022/10/14 18:51:57;;;;;;;10.40;3.72;;;17.40;79.00;;;;;;10369047;28;20049;-58
2022/10/14 18:56:58;;;;;;;11.70;4.50;;;17.40;79.10;;;;;;10367751;28;20026;-57
2022/10/14 19:02:00;;;;;;;8.38;4.60;;;17.40;79.30;;;;;;10369441;28;20049;-55
2022/10/14 19:07:01;;;;;;;7.15;3.70;;;17.30;79.20;;;;;;10367077;28;20018;-57
2022/10/14 19:12:39;;;;;;;7.47;3.95;;;17.30;79.10;;;;;;10367507;28;20112;-57
2022/10/14 19:17:22;;;;;;;7.88;4.28;;;17.40;79.00;;;;;;10363963;28;20041;-56
2022/10/14 19:22:22;;;;;;;17.27;4.10;;;17.30;79.00;;;;;;10367322;28;20081;-57
2022/10/14 19:27:23;;;;;;;8.35;4.10;;;17.30;78.90;;;;;;10349574;28;20026;-57
2022/10/14 19:32:24;;;;;;;8.80;3.90;;;17.30;78.80;;;;;;10365400;28;20030;-55
2022/10/14 19:37:24;;;;;;;7.97;4.30;;;17.30;78.80;;;;;;10364800;28;20088;-55
2022/10/14 19:42:25;;;;;;;8.20;4.05;;;17.30;78.80;;;;;;10393017;28;20100;-55
2022/10/14 19:47:26;;;;;;;8.00;4.57;;;17.30;78.80;;;;;;10365195;28;20443;-57
2022/10/14 19:52:26;;;;;;;9.43;4.80;;;17.20;78.60;;;;;;10365711;28;20045;-57
2022/10/14 19:57:27;;;;;;;6.68;4.35;;;17.20;78.60;;;;;;10366630;28;20053;-57
2022/10/14 20:02:28;;;;;;;6.60;4.50;;;17.20;78.50;;;;;;10366493;28;20112;-57
2022/10/14 20:07:28;;;;;;;6.95;4.28;;;17.20;78.40;;;;;;10366613;28;20109;-57
2022/10/14 20:12:29;;;;;;;9.45;4.78;;;17.20;78.40;;;;;;10374933;28;20164;-57
2022/10/14 20:17:30;;;;;;;7.85;4.05;;;17.20;78.30;;;;;;10364677;28;20533;-57
2022/10/14 20:22:31;;;;;;;6.82;4.93;;;17.10;78.20;;;;;;10365593;28;20037;-58
2022/10/14 20:27:32;;;;;;;5.95;4.75;;;17.10;78.20;;;;;;10365380;28;20457;-56
2022/10/14 20:32:32;;;;;;;8.18;5.22;;;17.10;78.10;;;;;;10365720;28;20026;-61
2022/10/14 20:37:33;;;;;;;8.50;6.63;;;17.10;78.00;;;;;;10365124;28;20033;-56
2022/10/14 20:42:35;;;;;;;6.78;4.90;;;17.10;78.00;;;;;;10361736;28;20497;-57
2022/10/14 20:47:35;;;;;;;6.80;4.53;;;17.10;77.90;;;;;;10363117;28;20017;-55
2022/10/14 20:52:36;;;;;;;6.72;5.20;;;17.10;77.80;;;;;;10363550;28;20025;-57
2022/10/14 20:57:37;;;;;;;7.63;4.93;;;17.10;77.80;;;;;;10362445;28;20058;-56
2022/10/14 21:02:37;;;;;;;5.97;4.82;;;17.10;77.70;;;;;;10363290;28;20026;-57
2022/10/14 21:07:38;;;;;;;6.90;4.75;;;17.10;77.60;;;;;;10362252;28;20022;-57
2022/10/14 21:12:38;;;;;;;5.80;4.00;;;17.10;77.50;;;;;;10362469;28;20050;-56
2022/10/14 21:17:45;;;;;;;6.28;5.00;;;17.10;77.50;;;;;;10361017;28;20057;-57
2022/10/14 21:22:46;;;;;;;6.53;5.28;;;17.10;77.40;;;;;;10377688;28;20127;-57
2022/10/14 21:27:47;;;;;;;5.82;4.53;;;17.10;77.30;;;;;;10361836;28;20113;-57
2022/10/14 21:32:47;;;;;;;6.38;4.43;;;17.10;77.20;;;;;;10362328;28;20030;-55
2022/10/14 21:37:51;;;;;;;6.07;4.63;;;17.00;77.10;;;;;;10361597;28;20062;-57
2022/10/14 21:42:52;;;;;;;5.72;4.10;;;17.10;77.00;;;;;;10371410;28;87096;-55
2022/10/14 21:47:53;;;;;;;8.30;4.90;;;17.00;77.00;;;;;;10374766;28;20041;-57
2022/10/14 21:52:53;;;;;;;6.15;4.97;;;17.00;76.90;;;;;;10363509;28;20050;-55
2022/10/14 21:57:54;;;;;;;5.63;4.78;;;17.00;76.90;;;;;;10369852;28;20129;-57
2022/10/14 22:02:55;;;;;;;5.90;4.40;;;17.00;76.90;;;;;;10371089;28;20120;-57
2022/10/14 22:07:55;;;;;;;5.18;4.30;;;17.00;76.80;;;;;;10369309;28;20069;-56
2022/10/14 22:12:57;;;;;;;5.72;3.92;;;17.00;76.80;;;;;;10385935;28;20126;-57
2022/10/14 22:17:58;;;;;;;6.30;4.80;;;17.00;76.80;;;;;;10370543;28;20461;-57
2022/10/14 22:22:58;;;;;;;5.40;4.63;;;17.00;76.70;;;;;;10370840;28;20034;-56
2022/10/14 22:28:00;;;;;;;5.28;4.32;;;17.00;76.70;;;;;;10369373;28;20036;-58
2022/10/14 22:33:01;;;;;;;6.70;5.20;;;17.00;76.70;;;;;;10383323;28;20454;-57
2022/10/14 22:38:01;;;;;;;5.25;4.13;;;17.00;76.60;;;;;;10369552;28;20025;-57
2022/10/14 22:43:02;;;;;;;6.15;4.22;;;17.00;76.60;;;;;;10385133;28;20103;-57
2022/10/14 22:48:03;;;;;;;6.38;4.40;;;16.90;76.40;;;;;;10369709;28;20089;-57
2022/10/14 22:53:03;;;;;;;4.75;4.15;;;16.90;76.40;;;;;;10368472;28;20538;-56
2022/10/14 22:58:04;;;;;;;5.53;4.03;;;16.90;76.40;;;;;;10368219;28;20034;-56
2022/10/14 23:03:05;;;;;;;11.00;5.07;;;16.90;76.30;;;;;;10368650;28;20120;-55
2022/10/14 23:08:09;;;;;;;5.32;3.95;;;16.90;76.30;;;;;;10373645;28;20052;-57
2022/10/14 23:13:10;;;;;;;5.38;3.83;;;16.90;76.30;;;;;;10372021;28;20080;-57
2022/10/14 23:18:10;;;;;;;6.72;4.72;;;16.90;76.20;;;;;;10368256;28;20469;-56
2022/10/14 23:23:11;;;;;;;5.97;4.30;;;16.90;76.20;;;;;;10368715;28;20034;-55
2022/10/14 23:28:12;;;;;;;5.93;4.63;;;16.90;76.10;;;;;;10368407;28;20052;-56
2022/10/14 23:33:13;;;;;;;5.95;4.85;;;16.90;76.10;;;;;;10368365;28;20735;-57
2022/10/14 23:38:13;;;;;;;10.00;4.57;;;16.90;76.10;;;;;;10366888;28;20104;-56
2022/10/14 23:43:14;;;;;;;8.07;5.63;;;16.90;76.00;;;;;;10366381;28;20124;-57
2022/10/14 23:48:15;;;;;;;5.78;4.43;;;16.90;76.00;;;;;;10366866;28;20105;-54
2022/10/14 23:53:16;;;;;;;5.72;4.57;;;16.90;76.00;;;;;;10381966;28;20056;-57
2022/10/14 23:58:16;;;;;;;7.15;4.38;;;16.90;76.00;;;;;;10365829;28;20465;-57
